createdAt,value
2023-06-07T00:00:29.050Z,26.30
2023-06-07T00:01:29.108Z,26.30
2023-06-07T00:02:42.174Z,26.29
2023-06-07T00:03:30.289Z,26.29
2023-06-07T00:04:29.278Z,26.28
2023-06-07T00:05:29.126Z,26.28
2023-06-07T00:06:29.139Z,26.29
2023-06-07T00:07:29.110Z,26.28
2023-06-07T00:08:29.121Z,26.27
2023-06-07T00:09:29.248Z,26.27
2023-06-07T00:10:29.112Z,26.27
2023-06-07T00:11:29.104Z,26.27
2023-06-07T00:12:29.111Z,26.26
2023-06-07T00:13:29.159Z,26.27
2023-06-07T00:14:29.212Z,26.26
2023-06-07T00:15:29.243Z,26.26
2023-06-07T00:16:29.284Z,26.25
2023-06-07T00:17:29.489Z,26.26
2023-06-07T00:18:29.585Z,26.25
2023-06-07T00:19:29.431Z,26.25
2023-06-07T00:20:29.470Z,26.25
2023-06-07T00:21:29.473Z,26.25
2023-06-07T00:22:29.497Z,26.25
2023-06-07T00:23:29.629Z,26.24
2023-06-07T00:24:29.597Z,26.24
2023-06-07T00:25:29.610Z,26.24
2023-06-07T00:26:29.631Z,26.23
2023-06-07T00:27:29.651Z,26.23
2023-06-07T00:28:29.941Z,26.23
2023-06-07T00:29:29.685Z,26.22
2023-06-07T00:30:29.713Z,26.22
2023-06-07T00:31:29.853Z,26.22
2023-06-07T00:32:29.869Z,26.22
2023-06-07T00:33:29.842Z,26.22
2023-06-07T00:34:29.878Z,26.21
2023-06-07T00:35:29.911Z,26.21
2023-06-07T00:36:29.951Z,26.21
2023-06-07T00:37:29.968Z,26.21
2023-06-07T00:38:29.989Z,26.20
2023-06-07T00:39:30.005Z,26.21
2023-06-07T00:40:30.029Z,26.20
2023-06-07T00:41:30.047Z,26.20
2023-06-07T00:42:30.063Z,26.19
2023-06-07T00:43:30.088Z,26.19
2023-06-07T00:44:30.108Z,26.19
2023-06-07T00:45:30.129Z,26.19
2023-06-07T00:46:30.166Z,26.19
2023-06-07T00:47:30.202Z,26.19
2023-06-07T00:48:30.257Z,26.18
2023-06-07T00:49:30.160Z,26.18
2023-06-07T00:50:30.169Z,26.18
2023-06-07T00:51:30.189Z,26.18
2023-06-07T00:52:30.201Z,26.17
2023-06-07T00:53:30.248Z,26.17
2023-06-07T00:54:30.271Z,26.17
2023-06-07T00:55:30.281Z,26.17
2023-06-07T00:56:30.288Z,26.17
2023-06-07T00:57:30.316Z,26.17
2023-06-07T00:58:30.338Z,26.16
2023-06-07T00:59:30.358Z,26.16
2023-06-07T01:00:30.351Z,26.16
2023-06-07T01:01:30.520Z,26.15
2023-06-07T01:02:30.473Z,26.15
2023-06-07T01:03:30.499Z,26.15
2023-06-07T01:04:30.432Z,26.14
2023-06-07T01:05:30.434Z,26.14
2023-06-07T01:06:30.474Z,26.15
2023-06-07T01:07:30.467Z,26.14
2023-06-07T01:08:30.488Z,26.14
2023-06-07T01:09:30.520Z,26.13
2023-06-07T01:10:30.509Z,26.13
2023-06-07T01:11:30.499Z,26.14
2023-06-07T01:12:30.524Z,26.14
2023-06-07T01:13:30.517Z,26.13
2023-06-07T01:14:30.523Z,26.14
2023-06-07T01:15:30.544Z,26.13
2023-06-07T01:16:30.591Z,26.13
2023-06-07T01:17:30.602Z,26.12
2023-06-07T01:18:30.599Z,26.13
2023-06-07T01:19:30.625Z,26.13
2023-06-07T01:20:30.632Z,26.12
2023-06-07T01:21:30.636Z,26.12
2023-06-07T01:22:30.649Z,26.12
2023-06-07T01:23:30.637Z,26.12
2023-06-07T01:24:30.645Z,26.12
2023-06-07T01:25:30.637Z,26.12
2023-06-07T01:26:30.642Z,26.12
2023-06-07T01:27:30.644Z,26.11
2023-06-07T01:28:30.626Z,26.11
2023-06-07T01:29:30.638Z,26.10
2023-06-07T01:30:30.691Z,26.11
2023-06-07T01:31:30.647Z,26.10
2023-06-07T01:32:30.658Z,26.09
2023-06-07T01:33:30.639Z,26.09
2023-06-07T01:34:30.633Z,26.09
2023-06-07T01:35:30.651Z,26.10
2023-06-07T01:36:30.642Z,26.08
2023-06-07T01:37:30.653Z,26.08
2023-06-07T01:38:30.663Z,26.08
2023-06-07T01:39:30.645Z,26.08
2023-06-07T01:40:30.657Z,26.08
2023-06-07T01:41:30.660Z,26.07
2023-06-07T01:42:30.675Z,26.07
2023-06-07T01:43:30.679Z,26.07
2023-06-07T01:44:30.663Z,26.07
2023-06-07T01:45:30.723Z,26.06
2023-06-07T01:46:30.722Z,26.07
2023-06-07T01:47:30.697Z,26.06
2023-06-07T01:48:30.692Z,26.06
2023-06-07T01:49:30.692Z,26.06
2023-06-07T01:50:30.679Z,26.06
2023-06-07T01:51:30.693Z,26.06
2023-06-07T01:52:30.671Z,26.06
2023-06-07T01:53:30.692Z,26.06
2023-06-07T01:54:30.703Z,26.06
2023-06-07T01:55:30.692Z,26.06
2023-06-07T01:56:30.703Z,26.05
2023-06-07T01:57:30.728Z,26.04
2023-06-07T01:58:30.672Z,26.05
2023-06-07T01:59:30.687Z,26.05
2023-06-07T02:00:30.684Z,26.04
2023-06-07T02:01:30.715Z,26.05
2023-06-07T02:02:30.750Z,26.04
2023-06-07T02:03:30.688Z,26.04
2023-06-07T02:04:30.687Z,26.04
2023-06-07T02:05:30.705Z,26.04
2023-06-07T02:06:30.681Z,26.04
2023-06-07T02:07:30.681Z,26.03
2023-06-07T02:08:30.694Z,26.03
2023-06-07T02:09:30.677Z,26.03
2023-06-07T02:10:30.672Z,26.03
2023-06-07T02:11:30.668Z,26.03
2023-06-07T02:12:30.670Z,26.02
2023-06-07T02:13:30.695Z,26.02
2023-06-07T02:14:30.676Z,26.01
2023-06-07T02:15:30.699Z,26.01
2023-06-07T02:16:30.682Z,26.02
2023-06-07T02:17:30.858Z,26.02
2023-06-07T02:18:30.700Z,26.01
2023-06-07T02:19:30.691Z,26.01
2023-06-07T02:20:30.716Z,26.01
2023-06-07T02:21:30.704Z,26.00
2023-06-07T02:22:30.729Z,26.00
2023-06-07T02:23:30.713Z,26.00
2023-06-07T02:24:30.703Z,26.00
2023-06-07T02:25:30.693Z,26.00
2023-06-07T02:26:30.720Z,25.99
2023-06-07T02:27:30.696Z,26.00
2023-06-07T02:28:30.722Z,25.99
2023-06-07T02:29:30.700Z,25.99
2023-06-07T02:30:30.719Z,25.99
2023-06-07T02:31:30.744Z,25.99
2023-06-07T02:32:30.723Z,25.98
2023-06-07T02:33:30.721Z,25.99
2023-06-07T02:34:30.722Z,25.98
2023-06-07T02:35:30.778Z,25.99
2023-06-07T02:36:30.734Z,25.98
2023-06-07T02:37:30.735Z,25.98
2023-06-07T02:38:30.762Z,25.98
2023-06-07T02:39:30.753Z,25.99
2023-06-07T02:40:30.785Z,25.98
2023-06-07T02:41:30.777Z,25.98
2023-06-07T02:42:30.770Z,25.97
2023-06-07T02:43:30.786Z,25.97
2023-06-07T02:44:30.777Z,25.97
2023-06-07T02:45:30.787Z,25.97
2023-06-07T02:46:30.808Z,25.96
2023-06-07T02:47:30.806Z,25.96
2023-06-07T02:48:30.824Z,25.96
2023-06-07T02:49:30.823Z,25.96
2023-06-07T02:50:30.854Z,25.96
2023-06-07T02:51:30.859Z,25.97
2023-06-07T02:52:30.848Z,25.96
2023-06-07T02:53:30.841Z,25.96
2023-06-07T02:54:30.871Z,25.95
2023-06-07T02:55:30.882Z,25.94
2023-06-07T02:56:30.887Z,25.94
2023-06-07T02:57:30.914Z,25.95
2023-06-07T02:58:30.896Z,25.94
2023-06-07T02:59:30.908Z,25.94
2023-06-07T03:00:30.920Z,25.94
2023-06-07T03:01:30.974Z,25.94
2023-06-07T03:02:31.068Z,25.93
2023-06-07T03:03:31.073Z,25.93
2023-06-07T03:04:30.966Z,25.93
2023-06-07T03:05:30.970Z,25.93
2023-06-07T03:06:31.001Z,25.93
2023-06-07T03:07:30.990Z,25.93
2023-06-07T03:08:31.006Z,25.93
2023-06-07T03:09:31.008Z,25.92
2023-06-07T03:10:31.033Z,25.92
2023-06-07T03:11:31.016Z,25.92
2023-06-07T03:12:31.035Z,25.92
2023-06-07T03:13:31.059Z,25.92
2023-06-07T03:14:31.070Z,25.92
2023-06-07T03:15:31.060Z,25.91
2023-06-07T03:16:31.178Z,25.91
2023-06-07T03:17:31.117Z,25.92
2023-06-07T03:18:31.074Z,25.91
2023-06-07T03:19:31.123Z,25.91
2023-06-07T03:20:31.152Z,25.91
2023-06-07T03:21:31.117Z,25.91
2023-06-07T03:22:31.135Z,25.90
2023-06-07T03:23:31.214Z,25.91
2023-06-07T03:24:31.148Z,25.91
2023-06-07T03:25:31.277Z,25.90
2023-06-07T03:26:31.184Z,25.90
2023-06-07T03:27:31.201Z,25.90
2023-06-07T03:28:31.194Z,25.90
2023-06-07T03:29:31.220Z,25.89
2023-06-07T03:30:31.240Z,25.90
2023-06-07T03:31:31.272Z,25.89
2023-06-07T03:32:31.258Z,25.89
2023-06-07T03:33:31.255Z,25.88
2023-06-07T03:34:31.255Z,25.89
2023-06-07T03:35:31.282Z,25.89
2023-06-07T03:36:31.303Z,25.89
2023-06-07T03:37:31.312Z,25.89
2023-06-07T03:38:31.320Z,25.89
2023-06-07T03:39:31.314Z,25.89
2023-06-07T03:40:31.348Z,25.88
2023-06-07T03:41:31.358Z,25.89
2023-06-07T03:42:31.368Z,25.88
2023-06-07T03:43:31.362Z,25.88
2023-06-07T03:44:31.404Z,25.88
2023-06-07T03:45:31.414Z,25.88
2023-06-07T03:46:31.429Z,25.88
2023-06-07T03:47:31.465Z,25.88
2023-06-07T03:48:31.553Z,25.88
2023-06-07T03:49:31.445Z,25.88
2023-06-07T03:50:31.467Z,25.88
2023-06-07T03:51:31.455Z,25.88
2023-06-07T03:52:31.463Z,25.88
2023-06-07T03:53:31.502Z,25.88
2023-06-07T03:54:31.484Z,25.88
2023-06-07T03:55:31.524Z,25.88
2023-06-07T03:56:31.520Z,25.87
2023-06-07T03:57:31.551Z,25.88
2023-06-07T03:58:31.532Z,25.87
2023-06-07T03:59:31.577Z,25.87
2023-06-07T04:00:31.567Z,25.87
2023-06-07T04:01:31.597Z,25.87
2023-06-07T04:02:31.653Z,25.87
2023-06-07T04:03:31.672Z,25.87
2023-06-07T04:04:31.692Z,25.87
2023-06-07T04:05:31.636Z,25.87
2023-06-07T04:06:31.667Z,25.87
2023-06-07T04:07:31.644Z,25.87
2023-06-07T04:08:31.651Z,25.88
2023-06-07T04:09:31.685Z,25.87
2023-06-07T04:10:31.690Z,25.87
2023-06-07T04:11:31.701Z,25.87
2023-06-07T04:12:31.713Z,25.88
2023-06-07T04:13:31.723Z,25.88
2023-06-07T04:14:31.735Z,25.88
2023-06-07T04:15:31.737Z,25.88
2023-06-07T04:16:31.788Z,25.88
2023-06-07T04:17:31.862Z,25.89
2023-06-07T04:18:31.791Z,25.88
2023-06-07T04:19:31.784Z,25.88
2023-06-07T04:20:31.802Z,25.89
2023-06-07T04:21:31.813Z,25.89
2023-06-07T04:22:31.856Z,25.89
2023-06-07T04:23:31.859Z,25.89
2023-06-07T04:24:31.842Z,25.88
2023-06-07T04:25:31.831Z,25.89
2023-06-07T04:26:31.848Z,25.89
2023-06-07T04:27:31.870Z,25.90
2023-06-07T04:28:31.919Z,25.90
2023-06-07T04:29:31.882Z,25.90
2023-06-07T04:30:31.900Z,25.90
2023-06-07T04:31:31.943Z,25.90
2023-06-07T04:32:31.927Z,25.90
2023-06-07T04:33:31.890Z,25.90
2023-06-07T04:34:31.906Z,25.91
2023-06-07T04:35:31.949Z,25.91
2023-06-07T04:36:31.920Z,25.91
2023-06-07T04:37:32.922Z,25.91
2023-06-07T04:38:33.354Z,25.91
2023-06-07T04:39:31.938Z,25.91
2023-06-07T04:40:31.945Z,25.91
2023-06-07T04:41:32.046Z,25.92
2023-06-07T04:42:31.940Z,25.92
2023-06-07T04:43:31.943Z,25.93
2023-06-07T04:44:31.963Z,25.95
2023-06-07T04:45:32.002Z,25.96
2023-06-07T04:46:32.181Z,25.98
2023-06-07T04:47:32.014Z,25.99
2023-06-07T04:48:31.982Z,26.00
2023-06-07T04:49:31.986Z,26.01
2023-06-07T04:50:31.982Z,26.02
2023-06-07T04:51:32.009Z,26.02
2023-06-07T04:52:31.997Z,26.03
2023-06-07T04:53:31.978Z,26.04
2023-06-07T04:54:31.980Z,26.03
2023-06-07T04:55:31.982Z,26.02
2023-06-07T04:56:31.982Z,26.04
2023-06-07T04:57:31.996Z,26.05
2023-06-07T04:58:31.971Z,26.05
2023-06-07T04:59:31.993Z,26.05
2023-06-07T05:00:32.003Z,26.06
2023-06-07T05:01:32.006Z,26.07
2023-06-07T05:02:32.024Z,26.08
2023-06-07T05:03:32.006Z,26.09
2023-06-07T05:04:32.035Z,26.11
2023-06-07T05:05:32.067Z,26.12
2023-06-07T05:06:32.049Z,26.12
2023-06-07T05:07:32.043Z,26.14
2023-06-07T05:08:32.081Z,26.14
2023-06-07T05:09:32.165Z,26.15
2023-06-07T05:10:32.125Z,26.16
2023-06-07T05:11:32.138Z,26.16
2023-06-07T05:12:32.143Z,26.18
2023-06-07T05:13:32.198Z,26.19
2023-06-07T05:14:32.213Z,26.19
2023-06-07T05:15:32.225Z,26.20
2023-06-07T05:16:32.326Z,26.21
2023-06-07T05:17:32.279Z,26.21
2023-06-07T05:18:32.255Z,26.22
2023-06-07T05:19:32.309Z,26.22
2023-06-07T05:20:32.350Z,26.23
2023-06-07T05:21:32.427Z,26.24
2023-06-07T05:22:32.462Z,26.24
2023-06-07T05:23:32.478Z,26.26
2023-06-07T05:24:32.532Z,26.27
2023-06-07T05:25:32.638Z,26.28
2023-06-07T05:26:33.036Z,26.29
2023-06-07T05:27:32.693Z,26.29
2023-06-07T05:28:32.750Z,26.25
2023-06-07T05:29:32.814Z,26.21
2023-06-07T05:30:32.851Z,26.22
2023-06-07T05:31:32.978Z,26.25
2023-06-07T05:32:33.010Z,26.29
2023-06-07T05:33:33.032Z,26.29
2023-06-07T05:34:33.097Z,26.33
2023-06-07T05:35:33.167Z,26.36
2023-06-07T05:36:33.201Z,26.40
2023-06-07T05:37:33.239Z,26.44
2023-06-07T05:38:33.382Z,26.48
2023-06-07T05:39:33.326Z,26.52
2023-06-07T05:40:33.374Z,26.54
2023-06-07T05:41:33.511Z,26.59
2023-06-07T05:42:33.451Z,26.63
2023-06-07T05:43:33.483Z,26.65
2023-06-07T05:44:33.497Z,26.67
2023-06-07T05:45:33.527Z,26.71
2023-06-07T05:46:33.580Z,26.75
2023-06-07T05:47:33.609Z,26.77
2023-06-07T05:48:33.617Z,26.80
2023-06-07T05:49:33.614Z,26.84
2023-06-07T05:50:33.654Z,26.87
2023-06-07T05:51:33.699Z,26.90
2023-06-07T05:52:33.674Z,26.93
2023-06-07T05:53:33.694Z,26.96
2023-06-07T05:54:33.715Z,26.99
2023-06-07T05:55:33.755Z,27.00
2023-06-07T05:56:33.746Z,27.03
2023-06-07T05:57:33.783Z,27.06
2023-06-07T05:58:33.757Z,27.07
2023-06-07T05:59:33.775Z,27.10
2023-06-07T06:00:33.805Z,27.11
2023-06-07T06:01:33.766Z,27.13
2023-06-07T06:02:33.930Z,27.15
2023-06-07T06:03:33.832Z,27.17
2023-06-07T06:04:33.901Z,27.19
2023-06-07T06:05:33.795Z,27.21
2023-06-07T06:06:33.807Z,27.22
2023-06-07T06:07:33.802Z,27.24
2023-06-07T06:08:33.780Z,27.26
2023-06-07T06:09:33.791Z,27.29
2023-06-07T06:10:35.798Z,27.30
2023-06-07T06:11:33.909Z,27.30
2023-06-07T06:12:33.948Z,27.33
2023-06-07T06:13:33.937Z,27.34
2023-06-07T06:14:34.001Z,27.36
2023-06-07T06:15:34.000Z,27.39
2023-06-07T06:16:34.052Z,27.41
2023-06-07T06:17:34.078Z,27.44
2023-06-07T06:18:34.138Z,27.45
2023-06-07T06:19:34.202Z,27.47
2023-06-07T06:20:34.251Z,27.49
2023-06-07T06:21:34.474Z,27.51
2023-06-07T06:22:34.376Z,27.53
2023-06-07T06:23:34.446Z,27.53
2023-06-07T06:24:34.493Z,27.56
2023-06-07T06:25:34.547Z,27.57
2023-06-07T06:26:34.988Z,27.57
2023-06-07T06:27:34.661Z,27.60
2023-06-07T06:28:34.711Z,27.61
2023-06-07T06:29:34.737Z,27.63
2023-06-07T06:30:34.792Z,27.64
2023-06-07T06:31:35.101Z,27.63
2023-06-07T06:32:34.896Z,27.63
2023-06-07T06:33:34.939Z,27.59
2023-06-07T06:34:34.981Z,27.59
2023-06-07T06:35:35.052Z,27.56
2023-06-07T06:36:35.469Z,27.55
2023-06-07T06:37:35.169Z,27.54
2023-06-07T06:38:35.200Z,27.57
2023-06-07T06:39:35.238Z,27.60
2023-06-07T06:40:35.305Z,27.63
2023-06-07T06:41:35.400Z,27.65
2023-06-07T06:42:35.437Z,27.67
2023-06-07T06:43:35.453Z,27.70
2023-06-07T06:44:35.522Z,27.72
2023-06-07T06:45:35.544Z,27.74
2023-06-07T06:46:36.064Z,27.77
2023-06-07T06:47:35.674Z,27.79
2023-06-07T06:48:35.721Z,27.80
2023-06-07T06:49:35.846Z,27.82
2023-06-07T06:50:36.008Z,27.83
2023-06-07T06:51:35.988Z,27.82
2023-06-07T06:52:35.815Z,27.82
2023-06-07T06:53:35.843Z,27.82
2023-06-07T06:54:35.851Z,27.87
2023-06-07T06:55:35.876Z,27.91
2023-06-07T06:56:35.988Z,27.96
2023-06-07T06:57:35.952Z,27.98
2023-06-07T06:58:36.012Z,28.02
2023-06-07T06:59:35.946Z,28.06
2023-06-07T07:00:35.965Z,28.09
2023-06-07T07:01:36.531Z,28.10
2023-06-07T07:02:35.992Z,28.12
2023-06-07T07:03:36.043Z,28.14
2023-06-07T07:04:36.127Z,28.17
2023-06-07T07:05:36.011Z,28.18
2023-06-07T07:06:36.097Z,28.21
2023-06-07T07:07:36.024Z,28.24
2023-06-07T07:08:36.029Z,28.24
2023-06-07T07:09:36.009Z,28.26
2023-06-07T07:10:36.013Z,28.28
2023-06-07T07:11:36.050Z,28.30
2023-06-07T07:12:36.107Z,28.32
2023-06-07T07:13:36.172Z,28.33
2023-06-07T07:14:36.285Z,28.34
2023-06-07T07:15:36.257Z,28.35
2023-06-07T07:16:38.834Z,28.35
2023-06-07T07:17:36.304Z,28.33
2023-06-07T07:18:36.274Z,28.33
2023-06-07T07:19:36.275Z,28.36
2023-06-07T07:20:36.236Z,28.39
2023-06-07T07:21:36.600Z,28.41
2023-06-07T07:22:36.258Z,28.42
2023-06-07T07:23:36.325Z,28.41
2023-06-07T07:24:37.261Z,28.38
2023-06-07T07:25:36.235Z,28.36
2023-06-07T07:26:36.532Z,28.37
2023-06-07T07:27:36.201Z,28.35
2023-06-07T07:28:36.213Z,28.30
2023-06-07T07:29:36.191Z,28.25
2023-06-07T07:30:36.181Z,28.14
2023-06-07T07:31:36.512Z,28.05
2023-06-07T07:32:36.225Z,28.02
2023-06-07T07:33:36.155Z,28.04
2023-06-07T07:34:36.512Z,28.05
2023-06-07T07:35:36.499Z,28.04
2023-06-07T07:36:36.154Z,28.03
2023-06-07T07:37:36.148Z,28.01
2023-06-07T07:38:36.127Z,27.99
2023-06-07T07:39:36.122Z,28.02
2023-06-07T07:40:36.131Z,28.04
2023-06-07T07:41:36.180Z,28.01
2023-06-07T07:42:36.203Z,27.98
2023-06-07T07:43:38.099Z,27.91
2023-06-07T07:44:36.298Z,27.78
2023-06-07T07:45:36.523Z,27.63
2023-06-07T07:46:36.532Z,27.53
2023-06-07T07:47:36.474Z,27.55
2023-06-07T07:48:36.445Z,27.59
2023-06-07T07:49:36.738Z,27.63
2023-06-07T07:50:36.530Z,27.56
2023-06-07T07:51:36.566Z,27.50
2023-06-07T07:52:36.603Z,27.42
2023-06-07T07:53:36.654Z,27.39
2023-06-07T07:54:36.688Z,27.48
2023-06-07T07:55:36.724Z,27.57
2023-06-07T07:56:36.778Z,27.63
2023-06-07T07:57:36.799Z,27.67
2023-06-07T07:58:36.834Z,27.69
2023-06-07T07:59:36.896Z,27.72
2023-06-07T08:00:36.916Z,27.76
2023-06-07T08:01:37.019Z,27.81
2023-06-07T08:02:37.195Z,27.81
2023-06-07T08:03:37.362Z,27.81
2023-06-07T08:04:37.154Z,27.83
2023-06-07T08:05:37.164Z,27.84
2023-06-07T08:06:37.230Z,27.84
2023-06-07T08:07:37.285Z,27.82
2023-06-07T08:08:37.322Z,27.82
2023-06-07T08:09:37.430Z,27.79
2023-06-07T08:10:37.427Z,27.78
2023-06-07T08:11:37.500Z,27.76
2023-06-07T08:12:37.552Z,27.69
2023-06-07T08:13:37.595Z,27.60
2023-06-07T08:14:37.638Z,27.60
2023-06-07T08:15:37.678Z,27.65
2023-06-07T08:16:38.056Z,27.69
2023-06-07T08:17:37.767Z,27.68
2023-06-07T08:18:37.850Z,27.66
2023-06-07T08:19:37.858Z,27.63
2023-06-07T08:20:37.887Z,27.61
2023-06-07T08:21:38.046Z,27.46
2023-06-07T08:22:37.961Z,27.33
2023-06-07T08:23:38.121Z,27.27
2023-06-07T08:24:38.064Z,27.21
2023-06-07T08:25:38.086Z,27.12
2023-06-07T08:26:38.104Z,27.11
2023-06-07T08:27:38.157Z,27.13
2023-06-07T08:28:38.216Z,27.12
2023-06-07T08:29:38.261Z,27.15
2023-06-07T08:30:38.264Z,27.26
2023-06-07T08:31:38.330Z,27.26
2023-06-07T08:32:38.369Z,27.27
2023-06-07T08:33:38.359Z,27.31
2023-06-07T08:34:38.403Z,27.42
2023-06-07T08:35:38.445Z,27.53
2023-06-07T08:36:38.537Z,27.58
2023-06-07T08:37:38.515Z,27.46
2023-06-07T08:38:39.036Z,27.44
2023-06-07T08:39:38.598Z,27.49
2023-06-07T08:40:38.668Z,27.58
2023-06-07T08:41:39.043Z,27.65
2023-06-07T08:42:38.684Z,27.73
2023-06-07T08:43:38.755Z,27.79
2023-06-07T08:44:38.730Z,27.85
2023-06-07T08:45:40.578Z,27.91
2023-06-07T08:46:38.834Z,27.97
2023-06-07T08:47:38.756Z,28.02
2023-06-07T08:48:38.762Z,28.08
2023-06-07T08:49:38.753Z,28.12
2023-06-07T08:50:38.716Z,28.17
2023-06-07T08:51:38.710Z,28.20
2023-06-07T08:52:38.800Z,28.24
2023-06-07T08:53:39.069Z,28.27
2023-06-07T08:54:38.714Z,28.31
2023-06-07T08:55:38.722Z,28.32
2023-06-07T08:56:39.079Z,28.34
2023-06-07T08:57:38.678Z,28.37
2023-06-07T08:58:38.674Z,28.39
2023-06-07T08:59:38.736Z,28.41
2023-06-07T09:00:38.697Z,28.45
2023-06-07T09:01:39.051Z,28.46
2023-06-07T09:02:38.701Z,28.47
2023-06-07T09:03:38.665Z,28.50
2023-06-07T09:04:38.651Z,28.50
2023-06-07T09:05:38.624Z,28.53
2023-06-07T09:06:38.629Z,28.55
2023-06-07T09:07:38.612Z,28.57
2023-06-07T09:08:38.636Z,28.60
2023-06-07T09:09:38.614Z,28.61
2023-06-07T09:10:38.600Z,28.62
2023-06-07T09:11:38.570Z,28.65
2023-06-07T09:12:38.579Z,28.65
2023-06-07T09:13:38.610Z,28.67
2023-06-07T09:14:38.572Z,28.69
2023-06-07T09:15:38.548Z,28.70
2023-06-07T09:16:38.616Z,28.70
2023-06-07T09:17:38.706Z,28.71
2023-06-07T09:18:38.561Z,28.72
2023-06-07T09:19:38.533Z,28.73
2023-06-07T09:20:38.503Z,28.74
2023-06-07T09:21:38.522Z,28.75
2023-06-07T09:22:38.488Z,28.76
2023-06-07T09:23:38.558Z,28.78
2023-06-07T09:24:38.495Z,28.78
2023-06-07T09:25:38.491Z,28.79
2023-06-07T09:26:38.575Z,28.81
2023-06-07T09:27:38.542Z,28.78
2023-06-07T09:28:38.711Z,28.78
2023-06-07T09:29:38.687Z,28.78
2023-06-07T09:30:38.642Z,28.69
2023-06-07T09:31:39.313Z,28.70
2023-06-07T09:33:38.767Z,28.75
2023-06-07T09:34:38.792Z,28.79
2023-06-07T09:35:38.916Z,28.79
2023-06-07T09:36:38.878Z,28.80
2023-06-07T09:37:38.964Z,28.83
2023-06-07T09:38:39.002Z,28.84
2023-06-07T09:39:38.995Z,28.85
2023-06-07T09:40:39.015Z,28.86
2023-06-07T09:41:39.134Z,28.86
2023-06-07T09:42:39.101Z,28.87
2023-06-07T09:43:39.218Z,28.87
2023-06-07T09:44:39.207Z,28.88
2023-06-07T09:45:39.384Z,28.90
2023-06-07T09:46:39.304Z,28.90
2023-06-07T09:47:39.337Z,28.90
2023-06-07T09:48:39.547Z,28.92
2023-06-07T09:49:39.398Z,28.94
2023-06-07T09:50:39.432Z,28.95
2023-06-07T09:51:39.538Z,28.96
2023-06-07T09:52:39.525Z,28.98
2023-06-07T09:53:39.576Z,28.98
2023-06-07T09:54:39.584Z,28.99
2023-06-07T09:55:39.669Z,28.99
2023-06-07T09:56:39.607Z,29.01
2023-06-07T09:57:39.676Z,29.02
2023-06-07T09:58:39.721Z,29.03
2023-06-07T09:59:39.836Z,29.04
2023-06-07T10:00:39.783Z,29.04
2023-06-07T10:01:40.331Z,29.04
2023-06-07T10:02:39.849Z,29.06
2023-06-07T10:03:39.912Z,29.08
2023-06-07T10:04:39.968Z,29.08
2023-06-07T10:05:39.871Z,29.09
2023-06-07T10:06:39.927Z,29.09
2023-06-07T10:07:40.033Z,29.10
2023-06-07T10:08:39.963Z,29.09
2023-06-07T10:09:40.018Z,29.10
2023-06-07T10:10:40.036Z,29.10
2023-06-07T10:11:40.086Z,29.11
2023-06-07T10:12:40.157Z,29.13
2023-06-07T10:13:40.126Z,29.13
2023-06-07T10:14:40.139Z,29.13
2023-06-07T10:15:40.205Z,29.12
2023-06-07T10:16:40.617Z,29.13
2023-06-07T10:17:40.263Z,29.12
2023-06-07T10:18:40.257Z,29.13
2023-06-07T10:19:40.334Z,29.13
2023-06-07T10:20:40.328Z,29.13
2023-06-07T10:21:40.385Z,29.13
2023-06-07T10:22:40.386Z,29.13
2023-06-07T10:23:40.508Z,29.06
2023-06-07T10:24:40.434Z,28.94
2023-06-07T10:25:40.458Z,28.88
2023-06-07T10:26:40.603Z,28.85
2023-06-07T10:27:40.558Z,28.84
2023-06-07T10:28:40.616Z,28.84
2023-06-07T10:29:40.599Z,28.86
2023-06-07T10:30:40.626Z,28.85
2023-06-07T10:31:41.221Z,28.84
2023-06-07T10:32:40.740Z,28.84
2023-06-07T10:33:40.725Z,28.86
2023-06-07T10:34:40.744Z,28.87
2023-06-07T10:35:40.803Z,28.90
2023-06-07T10:36:40.828Z,28.88
2023-06-07T10:37:40.868Z,28.86
2023-06-07T10:38:40.933Z,28.87
2023-06-07T10:39:40.992Z,28.88
2023-06-07T10:40:41.025Z,28.86
2023-06-07T10:41:41.109Z,28.86
2023-06-07T10:42:41.147Z,28.85
2023-06-07T10:43:41.122Z,28.85
2023-06-07T10:44:41.157Z,28.84
2023-06-07T10:45:41.201Z,28.83
2023-06-07T10:46:41.309Z,28.85
2023-06-07T10:47:41.408Z,28.84
2023-06-07T10:48:41.313Z,28.83
2023-06-07T10:49:41.751Z,28.84
2023-06-07T10:50:41.410Z,28.84
2023-06-07T10:51:41.452Z,28.84
2023-06-07T10:52:41.518Z,28.81
2023-06-07T10:53:41.525Z,28.81
2023-06-07T10:54:41.574Z,28.81
2023-06-07T10:55:41.687Z,28.81
2023-06-07T10:56:41.673Z,28.80
2023-06-07T10:57:41.688Z,28.80
2023-06-07T10:58:41.769Z,28.80
2023-06-07T10:59:41.837Z,28.81
2023-06-07T11:00:41.833Z,28.80
2023-06-07T11:01:41.931Z,28.82
2023-06-07T11:02:42.034Z,28.82
2023-06-07T11:03:42.137Z,28.82
2023-06-07T11:04:42.473Z,28.82
2023-06-07T11:05:42.051Z,28.80
2023-06-07T11:06:42.080Z,28.81
2023-06-07T11:07:42.078Z,28.81
2023-06-07T11:08:42.139Z,28.82
2023-06-07T11:09:42.240Z,28.83
2023-06-07T11:10:42.185Z,28.84
2023-06-07T11:11:42.236Z,28.80
2023-06-07T11:12:42.629Z,28.80
2023-06-07T11:13:42.338Z,28.80
2023-06-07T11:14:42.359Z,28.78
2023-06-07T11:15:42.477Z,28.78
2023-06-07T11:16:42.527Z,28.77
2023-06-07T11:17:42.556Z,28.76
2023-06-07T11:18:42.571Z,28.72
2023-06-07T11:19:42.640Z,28.67
2023-06-07T11:20:42.710Z,28.65
2023-06-07T11:21:42.764Z,28.66
2023-06-07T11:22:42.796Z,28.65
2023-06-07T11:23:42.875Z,28.63
2023-06-07T11:24:45.840Z,28.63
2023-06-07T11:25:42.927Z,28.61
2023-06-07T11:26:42.912Z,28.59
2023-06-07T11:27:42.918Z,28.60
2023-06-07T11:28:42.903Z,28.58
2023-06-07T11:29:42.998Z,28.55
2023-06-07T11:30:42.889Z,28.53
2023-06-07T11:31:42.904Z,28.52
2023-06-07T11:32:42.893Z,28.50
2023-06-07T11:33:42.882Z,28.48
2023-06-07T11:34:42.860Z,28.47
2023-06-07T11:35:42.890Z,28.46
2023-06-07T11:36:42.865Z,28.43
2023-06-07T11:37:42.911Z,28.44
2023-06-07T11:38:42.895Z,28.42
2023-06-07T11:39:42.827Z,28.42
2023-06-07T11:40:42.814Z,28.42
2023-06-07T11:41:42.839Z,28.41
2023-06-07T11:42:42.813Z,28.38
2023-06-07T11:43:42.794Z,28.34
2023-06-07T11:44:42.820Z,28.34
2023-06-07T11:45:42.766Z,28.29
2023-06-07T11:46:42.864Z,28.26
2023-06-07T11:47:42.900Z,28.27
2023-06-07T11:48:42.863Z,28.34
2023-06-07T11:49:42.770Z,28.37
2023-06-07T11:50:42.732Z,28.42
2023-06-07T11:51:42.776Z,28.45
2023-06-07T11:52:42.752Z,28.48
2023-06-07T11:53:42.750Z,28.50
2023-06-07T11:54:42.738Z,28.52
2023-06-07T11:55:42.711Z,28.53
2023-06-07T11:56:42.702Z,28.54
2023-06-07T11:57:42.693Z,28.55
2023-06-07T11:58:42.677Z,28.55
2023-06-07T11:59:42.681Z,28.55
2023-06-07T12:00:42.746Z,28.55
2023-06-07T12:01:42.674Z,28.55
2023-06-07T12:02:42.724Z,28.55
2023-06-07T12:03:45.221Z,28.55
2023-06-07T12:04:42.726Z,28.55
2023-06-07T12:05:42.708Z,28.54
2023-06-07T12:06:42.704Z,28.54
2023-06-07T12:07:42.683Z,28.54
2023-06-07T12:08:42.690Z,28.53
2023-06-07T12:09:42.668Z,28.51
2023-06-07T12:10:42.671Z,28.51
2023-06-07T12:11:42.661Z,28.51
2023-06-07T12:12:42.651Z,28.50
2023-06-07T12:13:42.672Z,28.48
2023-06-07T12:14:42.628Z,28.48
2023-06-07T12:15:42.727Z,28.47
2023-06-07T12:16:42.644Z,28.47
2023-06-07T12:17:42.669Z,28.46
2023-06-07T12:18:42.607Z,28.47
2023-06-07T12:19:42.597Z,28.45
2023-06-07T12:20:42.655Z,28.45
2023-06-07T12:21:42.601Z,28.44
2023-06-07T12:22:42.580Z,28.44
2023-06-07T12:23:42.583Z,28.43
2023-06-07T12:24:42.568Z,28.43
2023-06-07T12:25:42.746Z,28.42
2023-06-07T12:26:42.575Z,28.42
2023-06-07T12:27:42.550Z,28.42
2023-06-07T12:28:42.537Z,28.41
2023-06-07T12:29:42.522Z,28.41
2023-06-07T12:30:42.528Z,28.41
2023-06-07T12:31:42.574Z,28.40
2023-06-07T12:32:42.555Z,28.40
2023-06-07T12:33:42.525Z,28.38
2023-06-07T12:34:42.502Z,28.39
2023-06-07T12:35:42.477Z,28.38
2023-06-07T12:36:42.484Z,28.38
2023-06-07T12:37:42.454Z,28.38
2023-06-07T12:38:42.466Z,28.37
2023-06-07T12:39:42.466Z,28.38
2023-06-07T12:40:42.480Z,28.37
2023-06-07T12:41:42.478Z,28.37
2023-06-07T12:42:42.446Z,28.36
2023-06-07T12:43:42.430Z,28.36
2023-06-07T12:44:42.439Z,28.36
2023-06-07T12:45:42.420Z,28.35
2023-06-07T12:46:42.442Z,28.35
2023-06-07T12:47:42.475Z,28.34
2023-06-07T12:48:42.412Z,28.34
2023-06-07T12:49:42.417Z,28.34
2023-06-07T12:50:42.428Z,28.34
2023-06-07T12:51:42.509Z,28.34
2023-06-07T12:52:42.587Z,28.34
2023-06-07T12:53:42.657Z,28.33